createdAt,value
2017-05-10T00:01:19.234Z,55.00
2017-05-10T00:03:47.962Z,55.00
2017-05-10T00:06:16.310Z,55.10
2017-05-10T00:08:44.668Z,55.00
2017-05-10T00:11:12.982Z,55.10
2017-05-10T00:13:41.833Z,55.40
2017-05-10T00:16:10.184Z,55.40
2017-05-10T00:18:38.494Z,55.40
2017-05-10T00:21:07.586Z,55.90
2017-05-10T00:23:35.949Z,55.50
2017-05-10T00:26:04.302Z,55.60
2017-05-10T00:28:33.566Z,55.50
2017-05-10T00:31:01.921Z,55.50
2017-05-10T00:33:30.438Z,55.40
2017-05-10T00:35:59.484Z,55.50
2017-05-10T00:38:27.782Z,55.70
2017-05-10T00:40:56.129Z,55.90
2017-05-10T00:43:24.481Z,56.00
2017-05-10T00:45:52.838Z,56.10
2017-05-10T00:48:22.177Z,55.90
2017-05-10T00:50:51.269Z,56.00
2017-05-10T00:53:20.370Z,56.50
2017-05-10T00:55:49.422Z,56.20
2017-05-10T00:58:17.735Z,56.80
2017-05-10T01:00:46.033Z,56.30
2017-05-10T01:03:14.338Z,56.40
2017-05-10T01:05:42.685Z,56.50
2017-05-10T01:08:11.037Z,56.60
2017-05-10T01:10:39.389Z,56.80
2017-05-10T01:13:07.747Z,56.90
2017-05-10T01:15:36.107Z,56.90
2017-05-10T01:18:05.245Z,56.90
2017-05-10T01:20:33.889Z,57.00
2017-05-10T01:23:02.186Z,56.90
2017-05-10T01:25:30.730Z,56.80
2017-05-10T01:27:59.817Z,56.80
2017-05-10T01:30:28.173Z,56.70
2017-05-10T01:32:56.525Z,56.80
2017-05-10T01:35:24.883Z,56.80
2017-05-10T01:37:53.505Z,56.90
2017-05-10T01:40:21.854Z,57.00
2017-05-10T01:42:50.161Z,57.10
2017-05-10T01:45:18.744Z,57.10
2017-05-10T01:47:47.798Z,57.10
2017-05-10T01:50:16.445Z,56.90
2017-05-10T01:52:44.801Z,57.00
2017-05-10T01:55:13.154Z,57.10
2017-05-10T01:57:42.249Z,57.10
2017-05-10T02:00:10.569Z,57.10
2017-05-10T02:02:38.914Z,57.20
2017-05-10T02:05:07.226Z,57.30
2017-05-10T02:07:35.593Z,57.40
2017-05-10T02:10:03.911Z,57.60
2017-05-10T02:12:32.217Z,57.70
2017-05-10T02:15:00.601Z,57.90
2017-05-10T02:17:28.918Z,58.00
2017-05-10T02:19:57.261Z,58.10
2017-05-10T02:22:25.566Z,58.20
2017-05-10T02:24:54.953Z,58.30
2017-05-10T02:27:23.282Z,58.40
2017-05-10T02:29:51.602Z,58.30
2017-05-10T02:32:20.737Z,58.40
2017-05-10T02:34:50.801Z,58.40
2017-05-10T02:37:19.408Z,58.60
2017-05-10T02:39:48.586Z,58.50
2017-05-10T02:42:16.897Z,58.40
2017-05-10T02:44:45.236Z,58.20
2017-05-10T02:47:13.533Z,58.20
2017-05-10T02:49:42.034Z,58.20
2017-05-10T02:52:10.333Z,58.20
2017-05-10T02:54:38.645Z,58.30
2017-05-10T02:57:06.941Z,58.30
2017-05-10T02:59:35.237Z,58.30
2017-05-10T03:02:03.580Z,58.20
2017-05-10T03:04:31.890Z,58.40
2017-05-10T03:07:00.418Z,58.30
2017-05-10T03:09:28.719Z,58.50
2017-05-10T03:11:57.022Z,58.60
2017-05-10T03:14:25.364Z,58.70
2017-05-10T03:16:54.402Z,58.70
2017-05-10T03:19:22.745Z,58.80
2017-05-10T03:21:51.045Z,58.80
2017-05-10T03:24:19.410Z,58.90
2017-05-10T03:26:48.393Z,59.00
2017-05-10T03:29:16.697Z,58.50
2017-05-10T03:31:45.003Z,59.10
2017-05-10T03:34:13.307Z,59.10
2017-05-10T03:36:41.613Z,59.10
2017-05-10T03:39:09.917Z,59.20
2017-05-10T03:41:38.668Z,58.90
2017-05-10T03:44:07.717Z,58.90
2017-05-10T03:46:36.017Z,58.90
2017-05-10T03:49:04.323Z,58.80
2017-05-10T03:51:32.629Z,58.80
2017-05-10T03:54:00.929Z,58.80
2017-05-10T03:56:29.225Z,58.90
2017-05-10T03:58:57.520Z,58.80
2017-05-10T04:01:25.814Z,58.90
2017-05-10T04:03:54.437Z,59.10
2017-05-10T04:06:23.046Z,60.00
2017-05-10T04:08:51.349Z,59.80
2017-05-10T04:11:19.644Z,60.00
2017-05-10T04:13:47.941Z,60.10
2017-05-10T04:16:16.242Z,60.10
2017-05-10T04:18:44.542Z,60.00
2017-05-10T04:21:12.846Z,60.20
2017-05-10T04:23:41.151Z,61.10
2017-05-10T04:26:09.793Z,61.90
2017-05-10T04:28:38.492Z,61.30
2017-05-10T04:31:07.557Z,61.20
2017-05-10T04:33:35.870Z,61.70
2017-05-10T04:36:04.185Z,62.20
2017-05-10T04:38:32.493Z,62.00
2017-05-10T04:41:05.238Z,61.40
2017-05-10T04:43:33.541Z,61.60
2017-05-10T04:46:01.844Z,62.00
2017-05-10T04:48:30.146Z,61.60
2017-05-10T04:50:58.454Z,60.90
2017-05-10T04:53:30.754Z,60.20
2017-05-10T04:55:59.073Z,59.60
2017-05-10T04:58:28.113Z,58.80
2017-05-10T05:00:56.418Z,56.50
2017-05-10T05:03:24.721Z,55.70
2017-05-10T05:05:53.069Z,54.30
2017-05-10T05:08:21.378Z,54.30
2017-05-10T05:10:53.214Z,53.30
2017-05-10T05:13:21.521Z,50.90
2017-05-10T05:15:49.897Z,49.60
2017-05-10T05:18:18.211Z,48.30
2017-05-10T05:20:46.518Z,47.70
2017-05-10T05:23:16.401Z,46.60
2017-05-10T05:25:44.857Z,45.20
2017-05-10T05:28:13.158Z,42.80
2017-05-10T05:30:41.471Z,42.10
2017-05-10T05:33:10.524Z,40.40
2017-05-10T05:35:38.834Z,38.50
2017-05-10T05:38:07.137Z,37.80
2017-05-10T05:40:35.451Z,37.50
2017-05-10T05:43:03.758Z,37.30
2017-05-10T05:45:32.066Z,38.40
2017-05-10T05:48:00.369Z,39.20
2017-05-10T05:50:28.928Z,38.30
2017-05-10T05:52:57.237Z,37.90
2017-05-10T05:55:25.549Z,37.30
2017-05-10T05:57:53.854Z,36.50
2017-05-10T06:00:22.162Z,35.40
2017-05-10T06:02:50.541Z,35.00
2017-05-10T06:05:18.853Z,35.00
2017-05-10T06:07:47.168Z,35.00
2017-05-10T06:10:16.235Z,35.50
2017-05-10T06:12:44.542Z,35.80
2017-05-10T06:15:12.851Z,36.40
2017-05-10T06:17:41.163Z,36.70
2017-05-10T06:20:09.751Z,37.20
2017-05-10T06:22:38.058Z,37.50
2017-05-10T06:25:06.514Z,37.80
2017-05-10T06:27:35.017Z,38.20
2017-05-10T06:30:03.321Z,39.00
2017-05-10T06:32:31.631Z,39.30
2017-05-10T06:34:59.945Z,39.00
2017-05-10T06:37:28.426Z,39.00
2017-05-10T06:39:56.730Z,38.70
2017-05-10T06:42:25.030Z,38.50
2017-05-10T06:44:53.335Z,38.20
2017-05-10T06:47:21.641Z,37.90
2017-05-10T06:49:49.946Z,38.10
2017-05-10T06:52:19.738Z,37.90
2017-05-10T06:54:48.042Z,38.10
2017-05-10T06:57:16.358Z,38.40
2017-05-10T06:59:44.662Z,38.60
2017-05-10T07:02:12.971Z,38.80
2017-05-10T07:04:41.282Z,38.80
2017-05-10T07:07:09.589Z,39.00
2017-05-10T07:09:38.578Z,39.20
2017-05-10T07:12:06.886Z,39.20
2017-05-10T07:14:35.210Z,39.70
2017-05-10T07:17:04.263Z,39.80
2017-05-10T07:19:32.574Z,40.00
2017-05-10T07:22:00.902Z,40.50
2017-05-10T07:24:29.226Z,40.70
2017-05-10T07:26:58.461Z,40.90
2017-05-10T07:29:26.766Z,40.90
2017-05-10T07:31:55.306Z,41.00
2017-05-10T07:34:23.617Z,41.40
2017-05-10T07:36:51.930Z,41.70
2017-05-10T07:39:20.237Z,41.60
2017-05-10T07:41:49.302Z,41.80
2017-05-10T07:44:17.922Z,42.10
2017-05-10T07:46:46.231Z,42.20
2017-05-10T07:49:14.545Z,42.10
2017-05-10T07:51:43.087Z,42.60
2017-05-10T07:54:11.405Z,42.40
2017-05-10T07:56:39.762Z,42.70
2017-05-10T07:59:08.817Z,43.10
2017-05-10T08:01:37.291Z,43.10
2017-05-10T08:04:05.602Z,43.30
2017-05-10T08:06:34.137Z,43.60
2017-05-10T08:09:02.445Z,43.20
2017-05-10T08:11:30.753Z,42.80
2017-05-10T08:13:59.066Z,42.80
2017-05-10T08:16:28.130Z,42.60
2017-05-10T08:18:56.443Z,42.50
2017-05-10T08:21:24.760Z,42.70
2017-05-10T08:23:53.182Z,42.80
2017-05-10T08:26:22.236Z,42.90
2017-05-10T08:28:52.064Z,42.70
2017-05-10T08:31:20.378Z,42.40
2017-05-10T08:33:48.693Z,42.20
2017-05-10T08:36:17.005Z,41.50
2017-05-10T08:38:45.325Z,41.50
2017-05-10T08:41:14.377Z,41.50
2017-05-10T08:43:42.685Z,41.10
2017-05-10T08:46:11.405Z,41.20
2017-05-10T08:48:39.713Z,41.10
2017-05-10T08:51:08.031Z,40.70
2017-05-10T08:53:37.085Z,40.60
2017-05-10T08:56:05.398Z,40.70
2017-05-10T08:58:33.714Z,41.00
2017-05-10T09:01:02.024Z,41.40
2017-05-10T09:03:30.378Z,41.30
2017-05-10T09:05:58.686Z,41.50
2017-05-10T09:08:26.994Z,41.50
2017-05-10T09:10:55.306Z,41.40
2017-05-10T09:13:23.622Z,41.10
2017-05-10T09:15:51.938Z,41.30
2017-05-10T09:18:21.029Z,41.40
2017-05-10T09:20:49.392Z,42.10
2017-05-10T09:23:17.705Z,41.30
2017-05-10T09:25:46.018Z,41.10
2017-05-10T09:28:14.329Z,41.00
2017-05-10T09:30:43.033Z,40.70
2017-05-10T09:33:11.350Z,40.60
2017-05-10T09:35:40.410Z,40.40
2017-05-10T09:38:08.718Z,40.40
2017-05-10T09:40:37.033Z,40.90
2017-05-10T09:43:05.341Z,41.10
2017-05-10T09:45:33.649Z,40.90
2017-05-10T09:48:01.994Z,41.00
2017-05-10T09:50:30.309Z,40.80
2017-05-10T09:52:58.932Z,40.70
2017-05-10T09:55:27.247Z,40.70
2017-05-10T09:57:55.561Z,40.40
2017-05-10T10:00:24.605Z,40.70
2017-05-10T10:02:52.915Z,40.40
2017-05-10T10:05:21.274Z,40.10
2017-05-10T10:07:50.348Z,40.20
2017-05-10T10:10:18.701Z,40.30
2017-05-10T10:12:47.017Z,39.90
2017-05-10T10:15:15.329Z,40.00
2017-05-10T10:17:43.641Z,39.80
2017-05-10T10:20:11.949Z,39.30
2017-05-10T10:22:40.257Z,38.90
2017-05-10T10:25:08.578Z,38.90
2017-05-10T10:27:37.736Z,39.20
2017-05-10T10:30:06.046Z,39.60
2017-05-10T10:32:34.368Z,39.50
2017-05-10T10:35:02.674Z,39.50
2017-05-10T10:37:30.989Z,39.40
2017-05-10T10:40:00.045Z,39.40
2017-05-10T10:42:28.356Z,39.60
2017-05-10T10:44:56.664Z,39.80
2017-05-10T10:47:24.973Z,39.70
2017-05-10T10:49:53.326Z,39.70
2017-05-10T10:52:22.253Z,39.50
2017-05-10T10:54:50.973Z,39.00
2017-05-10T10:57:19.282Z,38.80
2017-05-10T10:59:47.589Z,38.80
2017-05-10T11:02:15.893Z,39.00
2017-05-10T11:04:44.217Z,39.00
2017-05-10T11:07:13.280Z,38.60
2017-05-10T11:09:41.589Z,38.60
2017-05-10T11:12:10.192Z,38.20
2017-05-10T11:14:38.501Z,38.40
2017-05-10T11:17:06.854Z,38.10
2017-05-10T11:19:35.205Z,38.10
2017-05-10T11:22:03.522Z,37.90
2017-05-10T11:24:32.719Z,38.10
2017-05-10T11:27:01.037Z,38.00
2017-05-10T11:29:30.454Z,37.90
2017-05-10T11:31:59.566Z,38.70
2017-05-10T11:34:27.877Z,38.10
2017-05-10T11:36:56.934Z,37.80
2017-05-10T11:39:25.249Z,38.20
2017-05-10T11:41:53.753Z,38.00
2017-05-10T11:44:22.061Z,38.30
2017-05-10T11:46:50.368Z,38.20
2017-05-10T11:49:18.676Z,37.70
2017-05-10T11:51:46.985Z,37.80
2017-05-10T11:54:15.294Z,37.60
2017-05-10T11:56:43.605Z,37.60
2017-05-10T11:59:11.953Z,37.50
2017-05-10T12:01:40.654Z,37.30
2017-05-10T12:04:08.964Z,37.40
2017-05-10T12:06:37.273Z,37.00
2017-05-10T12:09:05.590Z,36.90
2017-05-10T12:11:34.643Z,36.50
2017-05-10T12:14:02.957Z,36.20
2017-05-10T12:16:31.657Z,36.50
2017-05-10T12:18:59.965Z,37.30
2017-05-10T12:21:28.274Z,36.80
2017-05-10T12:23:56.597Z,36.80
2017-05-10T12:26:25.640Z,36.80
2017-05-10T12:28:54.236Z,37.00
2017-05-10T12:31:22.746Z,37.10
2017-05-10T12:33:51.109Z,36.80
2017-05-10T12:36:19.417Z,36.70
2017-05-10T12:38:48.917Z,36.60
2017-05-10T12:41:17.239Z,36.80
2017-05-10T12:43:46.295Z,36.50
2017-05-10T12:46:14.605Z,36.10
2017-05-10T12:48:42.913Z,36.30
2017-05-10T12:51:11.221Z,35.50
2017-05-10T12:53:39.905Z,35.50
2017-05-10T12:56:08.217Z,35.60
2017-05-10T12:58:36.525Z,35.90
2017-05-10T13:01:04.833Z,35.40
2017-05-10T13:03:33.141Z,35.50
2017-05-10T13:06:01.490Z,35.30
2017-05-10T13:08:29.806Z,35.20
2017-05-10T13:10:58.726Z,35.00
2017-05-10T13:13:27.037Z,35.10
2017-05-10T13:15:55.346Z,35.10
2017-05-10T13:18:23.653Z,34.80
2017-05-10T13:20:52.709Z,34.50
2017-05-10T13:23:21.020Z,34.70
2017-05-10T13:25:50.081Z,34.90
2017-05-10T13:28:19.373Z,35.50
2017-05-10T13:30:47.678Z,34.40
2017-05-10T13:33:16.949Z,34.20
2017-05-10T13:35:45.259Z,34.30
2017-05-10T13:38:13.565Z,34.50
2017-05-10T13:40:42.221Z,34.80
2017-05-10T13:43:11.269Z,34.90
2017-05-10T13:45:39.577Z,35.10
2017-05-10T13:48:07.893Z,34.30
2017-05-10T13:50:36.207Z,34.30
2017-05-10T13:53:04.519Z,34.40
2017-05-10T13:55:33.453Z,34.10
2017-05-10T13:58:02.602Z,34.00
2017-05-10T14:00:30.910Z,33.70
2017-05-10T14:02:59.217Z,33.60
2017-05-10T14:05:27.525Z,33.60
2017-05-10T14:07:55.836Z,33.50
2017-05-10T14:10:24.194Z,33.10
2017-05-10T14:12:52.502Z,33.20
2017-05-10T14:15:20.813Z,33.10
2017-05-10T14:17:49.121Z,33.10
2017-05-10T14:20:17.436Z,32.80
2017-05-10T14:22:46.533Z,32.30
2017-05-10T14:25:16.493Z,32.50
2017-05-10T14:27:45.542Z,32.60
2017-05-10T14:30:13.849Z,32.70
2017-05-10T14:32:42.197Z,32.10
2017-05-10T14:35:10.506Z,31.60
2017-05-10T14:37:39.665Z,31.90
2017-05-10T14:40:07.973Z,31.50
2017-05-10T14:42:36.687Z,31.40
2017-05-10T14:45:09.775Z,31.60
2017-05-10T14:47:43.513Z,31.60
2017-05-10T14:50:11.822Z,31.40
2017-05-10T14:52:40.134Z,31.40
2017-05-10T14:55:08.448Z,31.90
2017-05-10T14:57:37.499Z,31.60
2017-05-10T15:00:05.806Z,31.90
2017-05-10T15:02:34.113Z,31.60
2017-05-10T15:05:02.421Z,31.80
2017-05-10T15:07:30.729Z,31.70
2017-05-10T15:09:59.085Z,31.60
2017-05-10T15:12:27.401Z,31.80
2017-05-10T15:14:55.710Z,31.40
2017-05-10T15:17:24.018Z,31.70
2017-05-10T15:19:52.325Z,31.50
2017-05-10T15:22:20.638Z,31.70
2017-05-10T15:24:49.689Z,32.50
2017-05-10T15:27:23.573Z,31.90
2017-05-10T15:29:51.884Z,31.90
2017-05-10T15:32:20.937Z,31.40
2017-05-10T15:34:49.249Z,31.40
2017-05-10T15:37:17.573Z,31.60
2017-05-10T15:39:45.881Z,31.90
2017-05-10T15:42:14.189Z,32.10
2017-05-10T15:44:43.425Z,32.10
2017-05-10T15:47:12.077Z,32.10
2017-05-10T15:49:40.385Z,32.30
2017-05-10T15:52:08.701Z,32.40
2017-05-10T15:54:37.009Z,32.00
2017-05-10T15:57:06.063Z,31.90
2017-05-10T15:59:34.371Z,32.00
2017-05-10T16:02:02.686Z,32.30
2017-05-10T16:04:31.214Z,32.50
2017-05-10T16:07:00.293Z,33.40
2017-05-10T16:09:28.810Z,32.60
2017-05-10T16:11:57.122Z,32.50
2017-05-10T16:14:25.441Z,32.60
2017-05-10T16:16:54.533Z,32.70
2017-05-10T16:19:22.892Z,32.80
2017-05-10T16:21:51.205Z,32.80
2017-05-10T16:24:19.516Z,32.90
2017-05-10T16:26:47.825Z,33.00
2017-05-10T16:29:16.521Z,33.20
2017-05-10T16:31:44.830Z,33.30
2017-05-10T16:34:13.142Z,33.20
2017-05-10T16:36:41.450Z,33.10
2017-05-10T16:39:10.504Z,32.70
2017-05-10T16:41:38.813Z,32.80
2017-05-10T16:44:07.121Z,32.80
2017-05-10T16:46:35.430Z,32.60
2017-05-10T16:49:03.746Z,32.80
2017-05-10T16:51:32.098Z,32.90
2017-05-10T16:54:00.417Z,32.90
2017-05-10T16:56:28.725Z,33.00
2017-05-10T16:58:57.037Z,33.00
2017-05-10T17:01:25.349Z,33.00
2017-05-10T17:03:54.404Z,33.10
2017-05-10T17:06:22.897Z,33.10
2017-05-10T17:08:51.258Z,33.20
2017-05-10T17:11:20.317Z,33.30
2017-05-10T17:13:48.695Z,33.50
2017-05-10T17:16:17.177Z,33.80
2017-05-10T17:18:45.694Z,34.20
2017-05-10T17:21:14.316Z,34.30
2017-05-10T17:23:42.940Z,34.50
2017-05-10T17:26:11.699Z,34.80
2017-05-10T17:28:40.335Z,34.80
2017-05-10T17:31:08.968Z,35.10
2017-05-10T17:33:38.358Z,35.00
2017-05-10T17:36:07.042Z,34.90
2017-05-10T17:38:35.685Z,35.40
2017-05-10T17:41:04.329Z,36.30
2017-05-10T17:43:32.947Z,36.30
2017-05-10T17:46:01.578Z,36.50
2017-05-10T17:48:30.547Z,36.80
2017-05-10T17:50:59.915Z,36.90
2017-05-10T17:53:28.534Z,36.70
2017-05-10T17:55:57.176Z,36.30
2017-05-10T17:58:26.573Z,36.40
2017-05-10T18:00:55.199Z,36.40
2017-05-10T18:03:24.564Z,36.10
2017-05-10T18:05:53.197Z,36.40
2017-05-10T18:08:24.935Z,37.20
2017-05-10T18:10:53.591Z,36.50
2017-05-10T18:13:22.963Z,37.00
2017-05-10T18:15:52.279Z,36.40
2017-05-10T18:18:20.925Z,36.80
2017-05-10T18:20:49.575Z,37.00
2017-05-10T18:23:18.218Z,37.10
2017-05-10T18:25:46.871Z,37.20
2017-05-10T18:28:16.492Z,37.30
2017-05-10T18:30:45.891Z,37.50
2017-05-10T18:33:14.545Z,37.50
2017-05-10T18:35:43.180Z,37.50
2017-05-10T18:38:11.820Z,37.60
2017-05-10T18:40:40.707Z,37.80
2017-05-10T18:43:09.365Z,38.00
2017-05-10T18:45:38.821Z,38.00
2017-05-10T18:48:07.475Z,38.10
2017-05-10T18:50:37.765Z,38.20
2017-05-10T18:53:06.422Z,38.40
2017-05-10T18:55:35.048Z,38.50
2017-05-10T18:58:03.707Z,38.50
2017-05-10T19:00:32.339Z,38.80
2017-05-10T19:03:01.735Z,39.00
2017-05-10T19:05:30.377Z,39.20
2017-05-10T19:07:59.778Z,39.20
2017-05-10T19:10:28.751Z,39.20
2017-05-10T19:12:57.621Z,39.30
2017-05-10T19:15:26.721Z,39.40
2017-05-10T19:17:55.030Z,39.50
2017-05-10T19:20:23.346Z,39.60
2017-05-10T19:22:51.653Z,39.70
2017-05-10T19:25:19.957Z,39.70
2017-05-10T19:27:48.500Z,39.80
2017-05-10T19:30:16.806Z,40.10
2017-05-10T19:32:45.114Z,40.10
2017-05-10T19:35:15.493Z,40.30
2017-05-10T19:37:43.805Z,40.40
2017-05-10T19:40:12.174Z,40.50
2017-05-10T19:42:44.000Z,40.70
2017-05-10T19:45:13.054Z,40.70
2017-05-10T19:47:41.878Z,41.00
2017-05-10T19:50:10.333Z,41.30
2017-05-10T19:52:38.638Z,41.50
2017-05-10T19:55:07.241Z,41.80
2017-05-10T19:57:35.964Z,42.40
2017-05-10T20:00:05.147Z,42.30
2017-05-10T20:02:34.199Z,42.50
2017-05-10T20:05:02.522Z,42.50
2017-05-10T20:07:31.314Z,42.70
2017-05-10T20:09:59.641Z,42.80
2017-05-10T20:12:28.094Z,42.80
2017-05-10T20:14:56.403Z,42.80
2017-05-10T20:17:24.705Z,42.90
2017-05-10T20:19:53.021Z,43.10
2017-05-10T20:22:21.329Z,43.10
2017-05-10T20:24:49.633Z,43.20
2017-05-10T20:27:17.937Z,43.20
2017-05-10T20:29:46.434Z,43.30
2017-05-10T20:32:14.737Z,44.10
2017-05-10T20:34:43.041Z,43.60
2017-05-10T20:37:11.359Z,43.50
2017-05-10T20:39:40.411Z,43.60
2017-05-10T20:42:08.722Z,43.80
2017-05-10T20:44:37.030Z,43.90
2017-05-10T20:47:05.382Z,43.90
2017-05-10T20:49:33.701Z,44.00
2017-05-10T20:52:02.014Z,44.10
2017-05-10T20:54:30.630Z,44.20
2017-05-10T20:56:58.937Z,44.20
2017-05-10T20:59:27.246Z,44.30
2017-05-10T21:01:55.557Z,44.30
2017-05-10T21:04:24.609Z,44.30
2017-05-10T21:06:52.916Z,44.60
2017-05-10T21:09:21.813Z,44.60
2017-05-10T21:11:50.122Z,44.90
2017-05-10T21:14:18.442Z,44.90
2017-05-10T21:16:46.750Z,44.90
2017-05-10T21:19:15.081Z,44.90
2017-05-10T21:21:44.440Z,44.80
2017-05-10T21:24:12.759Z,45.00
2017-05-10T21:26:41.085Z,45.20
2017-05-10T21:29:09.399Z,45.30
2017-05-10T21:31:38.454Z,45.40
2017-05-10T21:34:06.765Z,45.60
2017-05-10T21:36:35.073Z,45.90
2017-05-10T21:39:03.398Z,46.00
2017-05-10T21:41:32.458Z,46.20
2017-05-10T21:44:00.774Z,46.20
2017-05-10T21:46:29.081Z,46.40
2017-05-10T21:48:57.394Z,46.70
2017-05-10T21:51:25.745Z,47.00
2017-05-10T21:53:54.058Z,47.00
2017-05-10T21:56:22.370Z,47.10
2017-05-10T21:58:50.684Z,47.30
2017-05-10T22:01:18.990Z,47.50
2017-05-10T22:03:47.304Z,47.50
2017-05-10T22:06:16.359Z,47.70
2017-05-10T22:08:44.674Z,47.70
2017-05-10T22:11:13.249Z,47.90
2017-05-10T22:13:41.558Z,47.90
2017-05-10T22:16:09.870Z,48.00
2017-05-10T22:18:38.178Z,48.10
2017-05-10T22:21:06.490Z,48.20
2017-05-10T22:23:34.798Z,48.20
2017-05-10T22:26:03.105Z,48.10
2017-05-10T22:28:32.157Z,48.50
2017-05-10T22:31:00.468Z,48.30
2017-05-10T22:33:28.774Z,48.40
2017-05-10T22:35:57.101Z,48.40
2017-05-10T22:38:25.558Z,48.50
2017-05-10T22:40:53.871Z,48.60
2017-05-10T22:43:22.185Z,48.60
2017-05-10T22:45:50.502Z,48.70
2017-05-10T22:48:18.809Z,48.80
2017-05-10T22:50:47.906Z,49.10
2017-05-10T22:53:16.217Z,49.00
2017-05-10T22:55:46.107Z,48.90
2017-05-10T22:58:14.420Z,49.00
2017-05-10T23:00:42.733Z,49.20
2017-05-10T23:03:11.054Z,49.30
2017-05-10T23:05:40.105Z,49.40
2017-05-10T23:08:08.415Z,49.50
2017-05-10T23:10:36.725Z,49.60
2017-05-10T23:13:05.341Z,49.80
2017-05-10T23:15:33.650Z,49.90
2017-05-10T23:18:01.965Z,50.10
2017-05-10T23:20:30.338Z,50.20
2017-05-10T23:22:58.650Z,50.20
2017-05-10T23:25:26.965Z,50.20
2017-05-10T23:27:56.017Z,50.20
2017-05-10T23:30:24.329Z,50.30
2017-05-10T23:32:52.990Z,50.40
2017-05-10T23:35:22.038Z,50.60
2017-05-10T23:37:50.349Z,50.70
2017-05-10T23:40:18.664Z,50.80
2017-05-10T23:42:46.978Z,50.80
2017-05-10T23:45:15.297Z,51.00
2017-05-10T23:47:44.342Z,52.10
2017-05-10T23:50:12.648Z,52.10
2017-05-10T23:52:40.954Z,52.30
2017-05-10T23:55:09.258Z,52.40
2017-05-10T23:57:37.618Z,52.40
